sensor_id;sensor_type;location;lat;lon;timestamp;pressure;altitude;pressure_sealevel;temperature;humidity
16431;BME280;8325;49.284;7.238;2023-03-21T05:01:25;98875.72;;;4.41;100.00
16431;BME280;8325;49.284;7.238;2023-03-21T05:05:41;98870.94;;;4.36;100.00
16431;BME280;8325;49.284;7.238;2023-03-21T05:09:52;98870.00;;;4.37;100.00
16431;BME280;8325;49.284;7.238;2023-03-21T05:14:05;98871.50;;;4.40;100.00
16431;BME280;8325;49.284;7.238;2023-03-21T05:18:17;98867.16;;;4.41;100.00
16431;BME280;8325;49.284;7.238;2023-03-21T05:22:47;98863.63;;;4.42;100.00
16431;BME280;8325;49.284;7.238;2023-03-21T05:27:00;98860.31;;;4.39;100.00
16431;BME280;8325;49.284;7.238;2023-03-21T05:31:17;98856.81;;;4.41;100.00
16431;BME280;8325;49.284;7.238;2023-03-21T05:35:32;98865.50;;;4.39;100.00
16431;BME280;8325;49.284;7.238;2023-03-21T05:39:47;98865.50;;;4.39;100.00
16431;BME280;8325;49.284;7.238;2023-03-21T05:44:13;98866.50;;;4.48;100.00
16431;BME280;8325;49.284;7.238;2023-03-21T05:48:25;98864.75;;;4.49;100.00
16431;BME280;8325;49.284;7.238;2023-03-21T05:52:50;98866.16;;;4.53;100.00
16431;BME280;8325;49.284;7.238;2023-03-21T05:57:04;98875.13;;;4.58;100.00
16431;BME280;8325;49.284;7.238;2023-03-21T06:01:36;98882.78;;;4.60;100.00
16431;BME280;8325;49.284;7.238;2023-03-21T06:05:55;98878.16;;;4.64;100.00
16431;BME280;8325;49.284;7.238;2023-03-21T06:10:11;98881.75;;;4.72;100.00
16431;BME280;8325;49.284;7.238;2023-03-21T06:14:27;98875.25;;;4.78;100.00
16431;BME280;8325;49.284;7.238;2023-03-21T06:19:01;98872.97;;;4.84;100.00
16431;BME280;8325;49.284;7.238;2023-03-21T06:23:36;98860.47;;;4.90;100.00
16431;BME280;8325;49.284;7.238;2023-03-21T06:27:48;98863.63;;;5.03;100.00
16431;BME280;8325;49.284;7.238;2023-03-21T06:32:00;98872.69;;;5.18;100.00
16431;BME280;8325;49.284;7.238;2023-03-21T06:36:12;98877.47;;;5.23;100.00
16431;BME280;8325;49.284;7.238;2023-03-21T06:40:24;98867.25;;;5.21;100.00
16431;BME280;8325;49.284;7.238;2023-03-21T06:44:37;98864.22;;;5.16;100.00
16431;BME280;8325;49.284;7.238;2023-03-21T06:48:53;98870.81;;;5.30;100.00
16431;BME280;8325;49.284;7.238;2023-03-21T06:53:04;98871.94;;;5.47;100.00
16431;BME280;8325;49.284;7.238;2023-03-21T06:57:26;98862.16;;;5.70;100.00
16431;BME280;8325;49.284;7.238;2023-03-21T07:01:38;98868.44;;;5.87;100.00
16431;BME280;8325;49.284;7.238;2023-03-21T07:05:51;98860.56;;;5.98;99.76
16431;BME280;8325;49.284;7.238;2023-03-21T07:10:05;98861.09;;;6.11;99.52
16431;BME280;8325;49.284;7.238;2023-03-21T07:14:27;98856.16;;;6.28;99.32
16431;BME280;8325;49.284;7.238;2023-03-21T07:18:39;98858.84;;;6.45;99.34
16431;BME280;8325;49.284;7.238;2023-03-21T07:22:51;98859.22;;;6.60;98.41
16431;BME280;8325;49.284;7.238;2023-03-21T07:27:04;98859.16;;;6.80;98.40
16431;BME280;8325;49.284;7.238;2023-03-21T07:31:16;98859.22;;;6.98;97.68
16431;BME280;8325;49.284;7.238;2023-03-21T07:35:32;98849.78;;;7.06;97.40
16431;BME280;8325;49.284;7.238;2023-03-21T07:39:44;98862.19;;;7.12;96.01
16431;BME280;8325;49.284;7.238;2023-03-21T07:43:56;98859.00;;;7.19;96.70
16431;BME280;8325;49.284;7.238;2023-03-21T07:48:16;98869.78;;;7.24;96.67
16431;BME280;8325;49.284;7.238;2023-03-21T07:52:30;98871.66;;;7.31;96.66
16431;BME280;8325;49.284;7.238;2023-03-21T07:56:42;98873.81;;;7.36;96.28
16431;BME280;8325;49.284;7.238;2023-03-21T08:00:59;98873.59;;;7.47;96.78
16431;BME280;8325;49.284;7.238;2023-03-21T08:05:13;98873.13;;;7.61;95.90
16431;BME280;8325;49.284;7.238;2023-03-21T08:09:25;98872.03;;;7.82;96.21
16431;BME280;8325;49.284;7.238;2023-03-21T08:13:37;98868.00;;;8.05;94.91
16431;BME280;8325;49.284;7.238;2023-03-21T08:17:50;98869.16;;;8.29;94.39
16431;BME280;8325;49.284;7.238;2023-03-21T08:22:02;98863.13;;;8.46;92.94
16431;BME280;8325;49.284;7.238;2023-03-21T08:26:16;98858.34;;;8.60;92.42
16431;BME280;8325;49.284;7.238;2023-03-21T08:30:29;98857.41;;;8.69;91.89
16431;BME280;8325;49.284;7.238;2023-03-21T08:34:41;98869.16;;;8.73;92.04
16431;BME280;8325;49.284;7.238;2023-03-21T08:38:54;98868.69;;;8.78;91.68
16431;BME280;8325;49.284;7.238;2023-03-21T08:43:15;98861.09;;;8.84;92.08
16431;BME280;8325;49.284;7.238;2023-03-21T08:47:27;98860.59;;;8.89;91.41
16431;BME280;8325;49.284;7.238;2023-03-21T08:51:39;98856.88;;;8.91;92.62
16431;BME280;8325;49.284;7.238;2023-03-21T08:55:51;98854.31;;;8.99;93.09
16431;BME280;8325;49.284;7.238;2023-03-21T09:00:05;98855.50;;;9.13;90.24
16431;BME280;8325;49.284;7.238;2023-03-21T09:04:24;98853.75;;;9.22;89.51
16431;BME280;8325;49.284;7.238;2023-03-21T09:08:40;98854.41;;;9.32;89.70
16431;BME280;8325;49.284;7.238;2023-03-21T09:12:53;98847.94;;;9.44;88.36
16431;BME280;8325;49.284;7.238;2023-03-21T09:17:05;98843.06;;;9.50;86.70
16431;BME280;8325;49.284;7.238;2023-03-21T09:21:17;98847.00;;;9.62;86.68
16431;BME280;8325;49.284;7.238;2023-03-21T09:25:30;98841.16;;;9.76;87.07
16431;BME280;8325;49.284;7.238;2023-03-21T09:29:43;98837.25;;;9.97;84.46
16431;BME280;8325;49.284;7.238;2023-03-21T09:33:55;98845.88;;;10.22;84.26
16431;BME280;8325;49.284;7.238;2023-03-21T09:38:07;98838.38;;;10.43;82.22
16431;BME280;8325;49.284;7.238;2023-03-21T09:47:19;98838.38;;;11.07;79.95
16431;BME280;8325;49.284;7.238;2023-03-21T09:51:44;98839.06;;;11.32;78.08
16431;BME280;8325;49.284;7.238;2023-03-21T09:55:56;98826.63;;;11.88;77.69
16431;BME280;8325;49.284;7.238;2023-03-21T10:00:16;98818.78;;;12.11;74.68
16431;BME280;8325;49.284;7.238;2023-03-21T10:04:33;98820.88;;;12.31;74.96
16431;BME280;8325;49.284;7.238;2023-03-21T10:08:45;98825.69;;;12.42;73.92
16431;BME280;8325;49.284;7.238;2023-03-21T10:12:58;98816.56;;;12.53;72.69
16431;BME280;8325;49.284;7.238;2023-03-21T10:21:27;98814.75;;;12.83;72.06
16431;BME280;8325;49.284;7.238;2023-03-21T10:26:05;98803.03;;;12.94;69.05
16431;BME280;8325;49.284;7.238;2023-03-21T10:30:29;98805.34;;;13.03;67.94
16431;BME280;8325;49.284;7.238;2023-03-21T10:34:49;98801.22;;;12.94;67.83
16431;BME280;8325;49.284;7.238;2023-03-21T10:39:18;98807.91;;;12.82;68.86
16431;BME280;8325;49.284;7.238;2023-03-21T10:43:35;98808.34;;;12.71;68.88
16431;BME280;8325;49.284;7.238;2023-03-21T10:47:48;98801.22;;;12.79;70.09
16431;BME280;8325;49.284;7.238;2023-03-21T10:52:06;98800.56;;;12.77;69.67
16431;BME280;8325;49.284;7.238;2023-03-21T10:56:24;98803.75;;;12.73;71.23
16431;BME280;8325;49.284;7.238;2023-03-21T11:00:41;98795.72;;;12.59;74.43
16431;BME280;8325;49.284;7.238;2023-03-21T11:04:54;98792.88;;;12.31;75.71
16431;BME280;8325;49.284;7.238;2023-03-21T11:09:11;98796.84;;;12.27;76.90
16431;BME280;8325;49.284;7.238;2023-03-21T11:13:26;98794.22;;;12.12;78.27
16431;BME280;8325;49.284;7.238;2023-03-21T11:17:43;98797.28;;;12.01;80.29
16431;BME280;8325;49.284;7.238;2023-03-21T11:21:56;98807.44;;;11.96;81.86
16431;BME280;8325;49.284;7.238;2023-03-21T11:26:14;98801.50;;;12.02;80.55
16431;BME280;8325;49.284;7.238;2023-03-21T11:30:27;98794.34;;;11.96;80.64
16431;BME280;8325;49.284;7.238;2023-03-21T11:34:46;98791.69;;;12.04;80.81
16431;BME280;8325;49.284;7.238;2023-03-21T11:39:14;98785.38;;;12.13;82.05
16431;BME280;8325;49.284;7.238;2023-03-21T11:43:37;98787.09;;;12.21;82.60
16431;BME280;8325;49.284;7.238;2023-03-21T11:47:52;98780.34;;;12.27;83.17
16431;BME280;8325;49.284;7.238;2023-03-21T11:52:16;98776.56;;;12.29;82.22
16431;BME280;8325;49.284;7.238;2023-03-21T11:56:36;98774.81;;;12.21;82.38
16431;BME280;8325;49.284;7.238;2023-03-21T12:00:55;98771.09;;;12.01;83.30
16431;BME280;8325;49.284;7.238;2023-03-21T12:05:18;98764.00;;;11.87;85.71
16431;BME280;8325;49.284;7.238;2023-03-21T12:09:39;98761.50;;;11.70;86.80
16431;BME280;8325;49.284;7.238;2023-03-21T12:14:07;98747.72;;;11.53;87.61
16431;BME280;8325;49.284;7.238;2023-03-21T12:23:00;98733.03;;;11.52;87.70
16431;BME280;8325;49.284;7.238;2023-03-21T12:37:05;98722.06;;;11.72;87.50
16431;BME280;8325;49.284;7.238;2023-03-21T12:41:24;98723.41;;;11.91;86.72
16431;BME280;8325;49.284;7.238;2023-03-21T12:45:43;98709.88;;;12.02;85.34
16431;BME280;8325;49.284;7.238;2023-03-21T12:50:07;98717.31;;;12.13;85.33
16431;BME280;8325;49.284;7.238;2023-03-21T12:54:28;98720.16;;;12.18;83.83
16431;BME280;8325;49.284;7.238;2023-03-21T12:58:51;98703.66;;;12.33;84.09
16431;BME280;8325;49.284;7.238;2023-03-21T13:03:32;98693.63;;;12.51;84.18
16431;BME280;8325;49.284;7.238;2023-03-21T13:07:53;98697.31;;;12.57;83.13
16431;BME280;8325;49.284;7.238;2023-03-21T13:12:33;98679.88;;;12.49;81.07
16431;BME280;8325;49.284;7.238;2023-03-21T13:16:55;98678.56;;;12.38;81.98
16431;BME280;8325;49.284;7.238;2023-03-21T13:21:13;98646.94;;;12.25;82.74
16431;BME280;8325;49.284;7.238;2023-03-21T13:25:25;98633.16;;;12.16;82.08
16431;BME280;8325;49.284;7.238;2023-03-21T13:29:49;98637.75;;;12.00;80.82
16431;BME280;8325;49.284;7.238;2023-03-21T13:34:02;98630.81;;;11.92;80.34
16431;BME280;8325;49.284;7.238;2023-03-21T13:38:18;98622.59;;;11.95;82.34
16431;BME280;8325;49.284;7.238;2023-03-21T13:42:32;98628.53;;;12.04;80.69
16431;BME280;8325;49.284;7.238;2023-03-21T13:46:52;98626.28;;;12.15;79.17
16431;BME280;8325;49.284;7.238;2023-03-21T13:51:05;98622.69;;;12.16;79.47
16431;BME280;8325;49.284;7.238;2023-03-21T13:55:19;98641.38;;;12.13;77.51
16431;BME280;8325;49.284;7.238;2023-03-21T14:03:49;98634.69;;;12.26;76.83
16431;BME280;8325;49.284;7.238;2023-03-21T14:08:09;98630.84;;;12.28;77.73
16431;BME280;8325;49.284;7.238;2023-03-21T14:12:42;98626.09;;;12.32;77.02
16431;BME280;8325;49.284;7.238;2023-03-21T14:16:54;98613.06;;;12.38;76.97
16431;BME280;8325;49.284;7.238;2023-03-21T14:21:15;98600.56;;;12.40;75.90
16431;BME280;8325;49.284;7.238;2023-03-21T14:25:36;98596.03;;;12.49;78.26
16431;BME280;8325;49.284;7.238;2023-03-21T14:29:58;98601.28;;;12.49;78.26
16431;BME280;8325;49.284;7.238;2023-03-21T14:34:13;98614.66;;;12.54;77.09
16431;BME280;8325;49.284;7.238;2023-03-21T14:38:32;98626.13;;;12.53;77.80
16431;BME280;8325;49.284;7.238;2023-03-21T14:42:49;98631.00;;;12.56;76.73
16431;BME280;8325;49.284;7.238;2023-03-21T14:47:05;98623.31;;;12.55;77.39
16431;BME280;8325;49.284;7.238;2023-03-21T14:51:18;98619.53;;;12.57;77.69
16431;BME280;8325;49.284;7.238;2023-03-21T14:55:30;98601.06;;;12.65;77.33
16431;BME280;8325;49.284;7.238;2023-03-21T14:59:42;98595.25;;;12.70;76.51
16431;BME280;8325;49.284;7.238;2023-03-21T15:03:54;98582.22;;;12.77;76.78
16431;BME280;8325;49.284;7.238;2023-03-21T15:08:11;98576.22;;;12.83;76.45
16431;BME280;8325;49.284;7.238;2023-03-21T15:12:24;98575.84;;;12.86;76.36
16431;BME280;8325;49.284;7.238;2023-03-21T15:16:36;98573.66;;;12.89;75.66
16431;BME280;8325;49.284;7.238;2023-03-21T15:20:50;98577.56;;;12.94;73.64
16431;BME280;8325;49.284;7.238;2023-03-21T15:25:07;98571.25;;;12.88;73.29
16431;BME280;8325;49.284;7.238;2023-03-21T15:29:23;98565.00;;;12.89;74.04
16431;BME280;8325;49.284;7.238;2023-03-21T15:33:36;98566.81;;;12.88;74.77
16431;BME280;8325;49.284;7.238;2023-03-21T15:37:56;98569.88;;;12.92;74.29
16431;BME280;8325;49.284;7.238;2023-03-21T15:42:29;98562.63;;;12.94;72.89
16431;BME280;8325;49.284;7.238;2023-03-21T15:46:45;98560.56;;;12.89;72.69
16431;BME280;8325;49.284;7.238;2023-03-21T15:51:04;98559.56;;;12.90;72.29
16431;BME280;8325;49.284;7.238;2023-03-21T15:55:27;98570.56;;;12.79;72.28
16431;BME280;8325;49.284;7.238;2023-03-21T15:59:40;98572.00;;;12.82;72.52
16431;BME280;8325;49.284;7.238;2023-03-21T16:04:01;98564.06;;;12.75;73.47
16431;BME280;8325;49.284;7.238;2023-03-21T16:08:21;98568.06;;;12.71;73.96
16431;BME280;8325;49.284;7.238;2023-03-21T16:12:33;98575.47;;;12.67;74.01
16431;BME280;8325;49.284;7.238;2023-03-21T16:16:45;98577.34;;;12.74;73.05
16431;BME280;8325;49.284;7.238;2023-03-21T16:21:00;98550.28;;;12.66;73.76
16431;BME280;8325;49.284;7.238;2023-03-21T16:25:12;98552.84;;;12.60;75.12
16431;BME280;8325;49.284;7.238;2023-03-21T16:29:23;98545.34;;;12.57;74.86
16431;BME280;8325;49.284;7.238;2023-03-21T16:33:35;98542.91;;;12.55;75.12
16431;BME280;8325;49.284;7.238;2023-03-21T16:37:47;98548.88;;;12.49;75.25
16431;BME280;8325;49.284;7.238;2023-03-21T16:41:58;98537.97;;;12.46;75.44
16431;BME280;8325;49.284;7.238;2023-03-21T16:46:15;98534.66;;;12.37;76.20
16431;BME280;8325;49.284;7.238;2023-03-21T16:50:31;98524.81;;;12.39;75.58
16431;BME280;8325;49.284;7.238;2023-03-21T16:54:43;98529.78;;;12.34;76.35
16431;BME280;8325;49.284;7.238;2023-03-21T16:58:56;98530.28;;;12.23;76.47
16431;BME280;8325;49.284;7.238;2023-03-21T17:03:14;98526.84;;;12.22;77.29
16431;BME280;8325;49.284;7.238;2023-03-21T17:07:26;98531.63;;;12.18;77.51
16431;BME280;8325;49.284;7.238;2023-03-21T17:11:38;98521.97;;;12.19;77.71
16431;BME280;8325;49.284;7.238;2023-03-21T17:20:19;98526.03;;;12.21;77.72
16431;BME280;8325;49.284;7.238;2023-03-21T17:24:31;98544.72;;;12.18;78.10
16431;BME280;8325;49.284;7.238;2023-03-21T17:28:43;98554.31;;;12.11;78.28
16431;BME280;8325;49.284;7.238;2023-03-21T17:32:55;98562.47;;;12.02;78.55
16431;BME280;8325;49.284;7.238;2023-03-21T17:37:08;98562.13;;;11.90;79.35
16431;BME280;8325;49.284;7.238;2023-03-21T17:41:21;98561.00;;;11.84;79.45
16431;BME280;8325;49.284;7.238;2023-03-21T17:45:33;98559.31;;;11.77;79.77
16431;BME280;8325;49.284;7.238;2023-03-21T17:49:44;98558.38;;;11.69;80.36
16431;BME280;8325;49.284;7.238;2023-03-21T17:53:56;98565.06;;;11.57;81.09
16431;BME280;8325;49.284;7.238;2023-03-21T17:58:08;98567.31;;;11.45;81.92
16431;BME280;8325;49.284;7.238;2023-03-21T18:02:22;98569.22;;;11.37;82.24
16431;BME280;8325;49.284;7.238;2023-03-21T18:06:34;98567.75;;;11.34;82.30
16431;BME280;8325;49.284;7.238;2023-03-21T18:10:47;98571.88;;;11.28;83.04
16431;BME280;8325;49.284;7.238;2023-03-21T18:14:59;98570.16;;;11.21;83.26
16431;BME280;8325;49.284;7.238;2023-03-21T18:19:11;98565.28;;;11.18;83.20
16431;BME280;8325;49.284;7.238;2023-03-21T18:23:23;98574.66;;;11.12;83.40
16431;BME280;8325;49.284;7.238;2023-03-21T18:27:35;98582.50;;;11.12;83.56
16431;BME280;8325;49.284;7.238;2023-03-21T18:32:07;98592.31;;;11.10;83.84
16431;BME280;8325;49.284;7.238;2023-03-21T18:36:20;98588.44;;;11.06;84.79
16431;BME280;8325;49.284;7.238;2023-03-21T18:40:36;98577.97;;;11.06;84.33
16431;BME280;8325;49.284;7.238;2023-03-21T18:44:49;98572.28;;;11.02;84.40
16431;BME280;8325;49.284;7.238;2023-03-21T18:49:01;98587.47;;;10.99;85.08
16431;BME280;8325;49.284;7.238;2023-03-21T18:53:32;98595.63;;;11.04;84.14
16431;BME280;8325;49.284;7.238;2023-03-21T18:57:44;98589.41;;;11.05;84.17
16431;BME280;8325;49.284;7.238;2023-03-21T19:01:56;98597.59;;;11.02;84.38
16431;BME280;8325;49.284;7.238;2023-03-21T19:06:07;98607.78;;;10.97;84.70
16431;BME280;8325;49.284;7.238;2023-03-21T19:10:21;98606.66;;;10.91;85.06
16431;BME280;8325;49.284;7.238;2023-03-21T19:14:33;98609.63;;;10.88;85.39
16431;BME280;8325;49.284;7.238;2023-03-21T19:18:45;98603.75;;;10.86;85.52
16431;BME280;8325;49.284;7.238;2023-03-21T19:23:06;98609.44;;;10.90;85.23
16431;BME280;8325;49.284;7.238;2023-03-21T19:27:20;98613.09;;;10.80;85.67
16431;BME280;8325;49.284;7.238;2023-03-21T19:31:31;98621.97;;;10.71;86.28
16431;BME280;8325;49.284;7.238;2023-03-21T19:35:43;98618.44;;;10.64;86.56
16431;BME280;8325;49.284;7.238;2023-03-21T19:39:57;98623.34;;;10.59;86.56
16431;BME280;8325;49.284;7.238;2023-03-21T19:44:08;98629.91;;;10.55;87.13
16431;BME280;8325;49.284;7.238;2023-03-21T19:48:19;98617.72;;;10.47;87.88
16431;BME280;8325;49.284;7.238;2023-03-21T19:52:31;98628.03;;;10.41;88.66
16431;BME280;8325;49.284;7.238;2023-03-21T19:56:47;98619.91;;;10.35;88.67
16431;BME280;8325;49.284;7.238;2023-03-21T20:00:59;98623.19;;;10.29;89.20
16431;BME280;8325;49.284;7.238;2023-03-21T20:05:13;98623.84;;;10.23;89.41
16431;BME280;8325;49.284;7.238;2023-03-21T20:09:25;98625.78;;;10.21;89.97
16431;BME280;8325;49.284;7.238;2023-03-21T20:13:56;98615.34;;;10.21;89.53
16431;BME280;8325;49.284;7.238;2023-03-21T20:18:09;98616.66;;;10.25;89.75
16431;BME280;8325;49.284;7.238;2023-03-21T20:22:21;98607.88;;;10.26;89.42
16431;BME280;8325;49.284;7.238;2023-03-21T20:26:52;98596.63;;;10.18;90.04
16431;BME280;8325;49.284;7.238;2023-03-21T20:31:05;98600.38;;;10.15;90.45
16431;BME280;8325;49.284;7.238;2023-03-21T20:35:17;98597.31;;;10.03;91.23
16431;BME280;8325;49.284;7.238;2023-03-21T20:39:48;98597.50;;;10.02;90.92
16431;BME280;8325;49.284;7.238;2023-03-21T20:44:00;98603.06;;;9.90;91.93
16431;BME280;8325;49.284;7.238;2023-03-21T20:48:32;98605.88;;;9.89;92.29
16431;BME280;8325;49.284;7.238;2023-03-21T20:52:44;98606.53;;;9.83;92.38
16431;BME280;8325;49.284;7.238;2023-03-21T20:57:16;98599.66;;;9.82;92.61
16431;BME280;8325;49.284;7.238;2023-03-21T21:01:28;98601.81;;;9.78;93.16
16431;BME280;8325;49.284;7.238;2023-03-21T21:05:42;98619.09;;;9.79;92.69
16431;BME280;8325;49.284;7.238;2023-03-21T21:09:54;98617.31;;;9.72;93.62
16431;BME280;8325;49.284;7.238;2023-03-21T21:14:06;98616.50;;;9.71;93.41
16431;BME280;8325;49.284;7.238;2023-03-21T21:18:17;98612.91;;;9.72;93.54
16431;BME280;8325;49.284;7.238;2023-03-21T21:22:29;98617.31;;;9.72;93.89
16431;BME280;8325;49.284;7.238;2023-03-21T21:26:41;98618.25;;;9.79;93.92
16431;BME280;8325;49.284;7.238;2023-03-21T21:31:04;98622.84;;;9.77;94.00
16431;BME280;8325;49.284;7.238;2023-03-21T21:35:15;98614.84;;;9.78;93.81
16431;BME280;8325;49.284;7.238;2023-03-21T21:39:29;98606.41;;;9.76;93.66
16431;BME280;8325;49.284;7.238;2023-03-21T21:43:48;98608.00;;;9.77;94.05
16431;BME280;8325;49.284;7.238;2023-03-21T21:47:59;98618.78;;;9.82;93.66
16431;BME280;8325;49.284;7.238;2023-03-21T21:52:11;98611.09;;;9.81;93.57
16431;BME280;8325;49.284;7.238;2023-03-21T21:56:24;98611.28;;;9.79;93.73
16431;BME280;8325;49.284;7.238;2023-03-21T22:00:45;98610.94;;;9.82;93.64
16431;BME280;8325;49.284;7.238;2023-03-21T22:04:57;98610.09;;;9.82;93.61
16431;BME280;8325;49.284;7.238;2023-03-21T22:09:09;98600.97;;;9.86;93.73
16431;BME280;8325;49.284;7.238;2023-03-21T22:13:21;98601.59;;;9.88;93.39
16431;BME280;8325;49.284;7.238;2023-03-21T22:17:33;98590.38;;;9.87;93.41
16431;BME280;8325;49.284;7.238;2023-03-21T22:21:45;98588.56;;;9.88;93.38
16431;BME280;8325;49.284;7.238;2023-03-21T22:25:57;98584.84;;;9.82;93.87
